createdAt,value
2022-08-04T00:01:52.259Z,12.20
2022-08-04T00:05:01.651Z,12.43
2022-08-04T00:08:16.588Z,11.93
2022-08-04T00:11:23.007Z,11.45
2022-08-04T00:14:27.562Z,11.40
2022-08-04T00:17:34.148Z,11.88
2022-08-04T00:20:40.898Z,11.45
2022-08-04T00:24:10.986Z,11.60
2022-08-04T00:27:10.719Z,11.57
2022-08-04T00:30:14.072Z,12.25
2022-08-04T00:33:20.679Z,11.90
2022-08-04T00:36:24.513Z,11.15
2022-08-04T00:39:31.110Z,11.10
2022-08-04T00:42:58.490Z,11.80
2022-08-04T00:46:34.502Z,11.48
2022-08-04T00:50:19.582Z,10.75
2022-08-04T00:53:32.857Z,11.20
2022-08-04T00:56:57.331Z,12.02
2022-08-04T01:00:08.107Z,10.98
2022-08-04T01:03:19.627Z,11.57
2022-08-04T01:06:35.954Z,11.27
2022-08-04T01:09:52.705Z,11.45
2022-08-04T01:13:21.366Z,11.45
2022-08-04T01:16:27.480Z,11.15
2022-08-04T01:19:55.058Z,11.80
2022-08-04T01:23:41.948Z,11.27
2022-08-04T01:26:53.716Z,12.45
2022-08-04T01:30:03.138Z,12.18
2022-08-04T01:33:09.983Z,11.25
2022-08-04T01:36:13.963Z,12.02
2022-08-04T01:39:35.763Z,11.35
2022-08-04T01:42:40.198Z,11.35
2022-08-04T01:45:52.595Z,12.10
2022-08-04T01:48:56.988Z,11.45
2022-08-04T01:52:01.006Z,11.63
2022-08-04T01:55:06.985Z,11.98
2022-08-04T01:58:11.639Z,12.13
2022-08-04T02:01:16.292Z,11.32
2022-08-04T02:04:23.558Z,11.50
2022-08-04T02:07:41.675Z,12.07
2022-08-04T02:10:58.840Z,11.35
2022-08-04T02:14:13.732Z,11.93
2022-08-04T02:17:30.467Z,11.48
2022-08-04T02:20:36.571Z,11.25
2022-08-04T02:23:42.024Z,11.05
2022-08-04T02:26:50.850Z,12.10
2022-08-04T02:30:01.026Z,11.93
2022-08-04T02:33:08.661Z,12.63
2022-08-04T02:36:24.328Z,12.80
2022-08-04T02:39:48.055Z,12.73
2022-08-04T02:42:52.149Z,11.98
2022-08-04T02:45:58.196Z,12.40
2022-08-04T02:49:04.682Z,13.07
2022-08-04T02:52:12.622Z,13.00
2022-08-04T02:55:18.359Z,12.75
2022-08-04T02:58:23.135Z,12.32
2022-08-04T03:01:26.945Z,13.23
2022-08-04T03:04:52.233Z,12.90
2022-08-04T03:08:31.253Z,12.73
2022-08-04T03:11:52.413Z,13.35
2022-08-04T03:15:28.999Z,13.10
2022-08-04T03:19:02.809Z,13.27
2022-08-04T03:22:30.112Z,13.35
2022-08-04T03:26:02.848Z,13.10
2022-08-04T03:29:44.257Z,14.20
2022-08-04T03:33:20.138Z,14.18
2022-08-04T03:36:58.767Z,13.70
2022-08-04T03:40:32.166Z,13.20
2022-08-04T03:44:04.824Z,12.85
2022-08-04T03:47:44.498Z,12.93
2022-08-04T03:51:32.581Z,10.00
2022-08-04T03:55:26.398Z,12.88
2022-08-04T03:59:08.294Z,12.32
2022-08-04T04:02:42.591Z,12.23
2022-08-04T04:06:02.401Z,11.65
2022-08-04T04:09:58.134Z,12.82
2022-08-04T04:13:36.019Z,12.45
2022-08-04T04:16:50.650Z,11.85
2022-08-04T04:20:15.326Z,12.27
2022-08-04T04:23:31.753Z,12.57
2022-08-04T04:26:50.264Z,11.90
2022-08-04T04:30:04.849Z,12.48
2022-08-04T04:33:26.629Z,12.40
2022-08-04T04:36:44.375Z,11.65
2022-08-04T04:40:03.456Z,11.93
2022-08-04T04:43:50.953Z,13.25
2022-08-04T04:47:05.968Z,12.27
2022-08-04T04:50:15.812Z,11.77
2022-08-04T04:53:28.547Z,12.55
2022-08-04T04:56:48.230Z,12.73
2022-08-04T04:59:57.135Z,12.80
2022-08-04T05:03:34.778Z,14.05
2022-08-04T05:06:54.859Z,12.55
2022-08-04T05:10:06.946Z,13.43
2022-08-04T05:14:38.143Z,11.88
2022-08-04T05:16:55.826Z,11.15
2022-08-04T05:20:07.631Z,11.68
2022-08-04T05:23:16.733Z,10.50
2022-08-04T05:26:22.958Z,10.38
2022-08-04T05:29:31.898Z,8.25
2022-08-04T05:32:45.154Z,8.52
2022-08-04T05:36:20.579Z,7.65
2022-08-04T05:39:21.741Z,7.15
2022-08-04T05:42:26.909Z,7.57
2022-08-04T05:45:39.296Z,7.50
2022-08-04T05:48:43.934Z,7.47
2022-08-04T05:51:50.028Z,6.85
2022-08-04T05:54:54.061Z,7.38
2022-08-04T05:58:00.108Z,6.40
2022-08-04T06:01:04.123Z,6.00
2022-08-04T06:04:11.174Z,6.90
2022-08-04T06:07:16.411Z,6.00
2022-08-04T06:10:29.307Z,5.72
2022-08-04T06:14:17.594Z,5.53
2022-08-04T06:26:12.529Z,3.70
2022-08-04T06:33:54.993Z,3.85
2022-08-04T06:36:59.963Z,3.85
2022-08-04T06:40:31.682Z,3.40
2022-08-04T06:44:08.060Z,3.70
2022-08-04T06:47:29.826Z,4.13
2022-08-04T06:51:48.997Z,3.53
2022-08-04T06:54:56.283Z,3.30
2022-08-04T06:58:03.054Z,3.60
2022-08-04T07:01:09.218Z,3.00
2022-08-04T07:04:12.982Z,3.13
2022-08-04T07:07:17.639Z,3.30
2022-08-04T07:10:24.135Z,3.67
2022-08-04T07:13:28.736Z,3.40
2022-08-04T07:16:33.940Z,3.20
2022-08-04T07:19:38.069Z,3.33
2022-08-04T07:22:44.212Z,3.03
2022-08-04T07:25:59.671Z,3.38
2022-08-04T07:29:17.037Z,3.22
2022-08-04T07:32:22.945Z,3.20
2022-08-04T07:36:09.572Z,2.85
2022-08-04T07:38:52.111Z,2.47
2022-08-04T07:41:57.275Z,2.22
2022-08-04T07:45:01.207Z,2.60
2022-08-04T07:48:07.237Z,2.10
2022-08-04T07:51:11.973Z,3.13
2022-08-04T07:54:16.561Z,2.47
2022-08-04T07:57:41.341Z,2.28
2022-08-04T08:00:47.310Z,2.30
2022-08-04T08:03:54.025Z,2.53
2022-08-04T08:06:59.423Z,2.75
2022-08-04T08:10:02.997Z,2.83
2022-08-04T08:13:08.280Z,2.65
2022-08-04T08:16:12.344Z,2.60
2022-08-04T08:19:17.836Z,2.53
2022-08-04T08:22:21.466Z,2.55
2022-08-04T08:25:25.176Z,2.53
2022-08-04T08:28:28.791Z,2.30
2022-08-04T08:31:57.614Z,2.35
2022-08-04T08:34:57.350Z,2.30
2022-08-04T08:38:06.301Z,2.25
2022-08-04T08:41:38.769Z,2.13
2022-08-04T08:45:30.792Z,2.20
2022-08-04T08:49:07.412Z,1.92
2022-08-04T08:52:56.360Z,2.33
2022-08-04T08:56:09.331Z,2.30
2022-08-04T08:59:40.126Z,2.50
2022-08-04T09:03:24.276Z,2.13
2022-08-04T09:06:48.971Z,2.30
2022-08-04T09:10:04.646Z,2.20
2022-08-04T09:13:14.679Z,2.40
2022-08-04T09:19:37.865Z,2.30
2022-08-04T09:22:50.860Z,2.50
2022-08-04T09:26:04.388Z,2.33
2022-08-04T09:29:15.301Z,2.28
2022-08-04T09:32:29.407Z,2.50
2022-08-04T09:35:43.324Z,2.50
2022-08-04T09:39:00.521Z,2.20
2022-08-04T09:42:19.403Z,2.22
2022-08-04T09:45:42.597Z,2.33
2022-08-04T09:48:56.187Z,2.28
2022-08-04T09:52:10.991Z,2.50
2022-08-04T09:55:23.064Z,2.50
2022-08-04T09:58:41.780Z,2.70
2022-08-04T10:01:46.112Z,2.17
2022-08-04T10:04:53.978Z,2.40
2022-08-04T10:08:17.233Z,2.50
2022-08-04T10:11:34.477Z,3.17
2022-08-04T10:15:12.090Z,3.00
2022-08-04T10:18:29.478Z,2.55
2022-08-04T10:21:50.962Z,2.58
2022-08-04T10:26:02.666Z,2.58
2022-08-04T10:28:53.052Z,3.07
2022-08-04T10:32:05.290Z,2.15
2022-08-04T10:35:12.192Z,2.50
2022-08-04T10:38:25.227Z,2.30
2022-08-04T10:41:39.471Z,2.38
2022-08-04T10:44:57.402Z,2.08
2022-08-04T10:48:10.829Z,2.65
2022-08-04T10:51:22.784Z,2.80
2022-08-04T10:54:32.636Z,2.30
2022-08-04T11:00:43.230Z,2.10
2022-08-04T11:03:57.472Z,2.80
2022-08-04T11:07:02.282Z,2.38
2022-08-04T11:10:07.282Z,2.40
2022-08-04T11:13:22.082Z,2.13
2022-08-04T11:16:42.641Z,2.45
2022-08-04T11:20:03.441Z,2.85
2022-08-04T11:23:17.971Z,2.35
2022-08-04T11:26:25.651Z,2.17
2022-08-04T11:29:38.600Z,2.40
2022-08-04T11:32:48.115Z,2.50
2022-08-04T11:35:59.179Z,2.30
2022-08-04T11:39:08.787Z,2.33
2022-08-04T11:42:19.811Z,2.55
2022-08-04T11:45:29.622Z,2.10
2022-08-04T11:48:38.372Z,2.10
2022-08-04T11:51:45.633Z,2.20
2022-08-04T11:54:52.674Z,2.10
2022-08-04T11:57:58.425Z,1.90
2022-08-04T12:01:09.892Z,2.08
2022-08-04T12:04:19.873Z,2.28
2022-08-04T12:07:41.671Z,2.55
2022-08-04T12:11:04.846Z,2.08
2022-08-04T12:14:19.834Z,2.28
2022-08-04T12:17:33.639Z,2.08
2022-08-04T12:21:00.001Z,2.10
2022-08-04T12:24:09.719Z,2.13
2022-08-04T12:27:19.009Z,1.80
2022-08-04T12:30:59.637Z,2.10
2022-08-04T12:34:05.190Z,2.08
2022-08-04T12:37:22.108Z,2.20
2022-08-04T12:40:31.174Z,2.40
2022-08-04T12:46:46.280Z,1.92
2022-08-04T12:49:59.040Z,2.72
2022-08-04T12:53:19.574Z,2.03
2022-08-04T12:56:37.282Z,1.80
2022-08-04T12:59:41.631Z,2.20
2022-08-04T13:02:47.224Z,1.98
2022-08-04T13:05:54.467Z,2.30
2022-08-04T13:09:05.368Z,2.30
2022-08-04T13:12:16.719Z,2.20
2022-08-04T13:15:26.030Z,2.10
2022-08-04T13:18:32.310Z,2.05
2022-08-04T13:21:50.000Z,2.00
2022-08-04T13:25:18.258Z,2.13
2022-08-04T13:28:32.696Z,1.67
2022-08-04T13:31:38.672Z,2.10
2022-08-04T13:34:49.457Z,2.13
2022-08-04T13:37:58.238Z,2.30
2022-08-04T13:41:04.586Z,2.20
2022-08-04T13:44:18.384Z,2.20
2022-08-04T13:47:27.936Z,2.28
2022-08-04T13:50:33.448Z,2.08
2022-08-04T13:53:38.426Z,2.17
2022-08-04T13:56:46.958Z,2.35
2022-08-04T13:59:58.760Z,2.30
2022-08-04T14:03:23.156Z,2.10
2022-08-04T14:06:31.709Z,2.15
2022-08-04T14:09:36.070Z,2.30
2022-08-04T14:12:47.262Z,2.30
2022-08-04T14:16:02.123Z,2.30
2022-08-04T14:19:07.549Z,2.05
2022-08-04T14:22:28.980Z,3.80
2022-08-04T14:25:35.627Z,2.40
2022-08-04T14:34:03.569Z,2.17
2022-08-04T14:37:48.818Z,2.10
2022-08-04T14:41:01.101Z,2.20
2022-08-04T14:44:07.293Z,2.08
2022-08-04T14:47:13.381Z,2.22
2022-08-04T14:51:17.400Z,2.45
2022-08-04T14:54:39.032Z,2.50
2022-08-04T14:58:36.578Z,2.28
2022-08-04T15:01:11.841Z,2.17
2022-08-04T15:05:55.041Z,2.35
2022-08-04T15:08:57.589Z,2.15
2022-08-04T15:12:01.522Z,2.30
2022-08-04T15:15:34.150Z,2.22
2022-08-04T15:23:39.282Z,2.22
2022-08-04T15:27:37.255Z,2.20
2022-08-04T15:35:35.125Z,2.20
2022-08-04T15:44:30.464Z,1.80
2022-08-04T15:48:18.791Z,2.10
2022-08-04T15:53:00.631Z,2.05
2022-08-04T15:55:48.735Z,1.83
2022-08-04T16:00:21.700Z,1.75
2022-08-04T16:04:07.134Z,1.85
2022-08-04T16:07:56.402Z,2.47
2022-08-04T16:15:36.199Z,2.08
2022-08-04T16:18:59.598Z,1.77
2022-08-04T16:22:51.822Z,1.85
2022-08-04T16:30:51.612Z,2.00
2022-08-04T16:34:49.063Z,2.00
2022-08-04T16:37:35.653Z,1.90
2022-08-04T16:40:44.192Z,1.85
2022-08-04T16:43:47.638Z,2.05
2022-08-04T16:47:21.802Z,2.10
2022-08-04T16:50:16.889Z,2.40
2022-08-04T16:53:53.858Z,2.40
2022-08-04T16:56:46.319Z,2.70
2022-08-04T16:59:53.503Z,3.40
2022-08-04T17:02:57.614Z,2.58
2022-08-04T17:06:11.075Z,2.60
2022-08-04T17:09:16.649Z,2.63
2022-08-04T17:12:21.140Z,2.72
2022-08-04T17:15:26.044Z,2.85
2022-08-04T17:18:32.173Z,2.50
2022-08-04T17:21:38.506Z,2.60
2022-08-04T17:24:42.052Z,2.80
2022-08-04T17:28:09.180Z,3.10
2022-08-04T17:31:11.793Z,3.25
2022-08-04T17:34:19.619Z,3.08
2022-08-04T17:37:52.799Z,3.20
2022-08-04T17:40:53.284Z,3.20
2022-08-04T17:44:06.598Z,3.22
2022-08-04T17:47:17.751Z,3.28
2022-08-04T17:50:27.990Z,3.38
2022-08-04T17:53:52.797Z,3.67
2022-08-04T17:57:01.193Z,3.60
2022-08-04T18:00:05.541Z,3.50
2022-08-04T18:03:24.853Z,3.60
2022-08-04T18:06:33.790Z,4.03
2022-08-04T18:10:02.311Z,3.97
2022-08-04T18:16:31.917Z,4.70
2022-08-04T18:19:36.129Z,5.30
2022-08-04T18:22:53.374Z,5.45
2022-08-04T18:25:59.013Z,5.50
2022-08-04T18:29:04.846Z,5.80
2022-08-04T18:32:09.663Z,5.78
2022-08-04T18:35:16.354Z,7.30
2022-08-04T18:38:23.491Z,9.40
2022-08-04T18:41:51.512Z,9.77
2022-08-04T18:44:53.671Z,12.60
2022-08-04T18:47:59.010Z,10.77
2022-08-04T18:51:22.830Z,10.80
2022-08-04T18:54:27.240Z,9.27
2022-08-04T18:58:00.910Z,6.82
2022-08-04T19:01:00.416Z,6.47
2022-08-04T19:04:04.686Z,6.30
2022-08-04T19:08:02.158Z,7.25
2022-08-04T19:10:54.363Z,7.45
2022-08-04T19:14:05.475Z,8.00
2022-08-04T19:17:12.531Z,8.23
2022-08-04T19:24:26.897Z,9.20
2022-08-04T19:27:06.536Z,9.18
2022-08-04T19:30:13.099Z,9.60
2022-08-04T19:33:25.124Z,8.15
2022-08-04T19:36:33.155Z,8.75
2022-08-04T19:39:37.285Z,9.00
2022-08-04T19:42:46.602Z,8.73
2022-08-04T19:45:56.231Z,11.73
2022-08-04T19:49:01.371Z,15.00
2022-08-04T19:52:05.289Z,16.10
2022-08-04T19:55:11.497Z,17.33
2022-08-04T19:58:15.303Z,16.00
2022-08-04T20:01:33.007Z,15.13
2022-08-04T20:04:41.744Z,14.00
2022-08-04T20:07:46.009Z,13.43
2022-08-04T20:10:52.015Z,13.63
2022-08-04T20:13:55.669Z,13.55
2022-08-04T20:17:00.987Z,12.88
2022-08-04T20:20:05.575Z,13.10
2022-08-04T20:23:12.160Z,12.10
2022-08-04T20:26:18.876Z,13.40
2022-08-04T20:29:40.189Z,11.75
2022-08-04T20:32:52.829Z,11.93
2022-08-04T20:36:05.768Z,12.35
2022-08-04T20:39:11.023Z,12.20
2022-08-04T20:42:19.450Z,11.80
2022-08-04T20:45:57.159Z,11.32
2022-08-04T20:48:56.213Z,11.63
2022-08-04T20:52:06.562Z,11.48
2022-08-04T20:55:17.070Z,10.98
2022-08-04T20:58:20.427Z,10.35
2022-08-04T21:01:31.517Z,10.95
2022-08-04T21:04:45.606Z,10.52
2022-08-04T21:07:54.794Z,10.20
2022-08-04T21:10:58.463Z,10.82
2022-08-04T21:14:05.549Z,10.73
2022-08-04T21:17:09.399Z,11.57
2022-08-04T21:20:27.764Z,10.50
2022-08-04T21:23:34.020Z,11.48
2022-08-04T21:26:38.117Z,11.40
2022-08-04T21:29:46.214Z,10.63
2022-08-04T21:32:49.649Z,11.18
2022-08-04T21:35:55.311Z,12.32
2022-08-04T21:38:58.879Z,11.63
2022-08-04T21:42:27.852Z,11.75
2022-08-04T21:45:36.169Z,11.02
2022-08-04T21:48:42.394Z,10.93
2022-08-04T21:51:59.912Z,11.00
2022-08-04T21:55:05.602Z,11.35
2022-08-04T21:58:11.243Z,11.40
2022-08-04T22:01:49.967Z,11.38
2022-08-04T22:04:40.522Z,12.00
2022-08-04T22:07:49.835Z,12.07
2022-08-04T22:10:54.701Z,11.95
2022-08-04T22:14:11.195Z,12.05
2022-08-04T22:17:18.376Z,11.60
2022-08-04T22:20:27.196Z,11.43
2022-08-04T22:23:41.809Z,11.40
2022-08-04T22:26:51.058Z,11.18
2022-08-04T22:29:54.676Z,11.18
2022-08-04T22:32:58.282Z,11.35
2022-08-04T22:36:03.563Z,11.45
2022-08-04T22:39:08.449Z,11.93
2022-08-04T22:42:13.281Z,11.48
2022-08-04T22:45:16.865Z,11.93
2022-08-04T22:48:20.218Z,12.20
2022-08-04T22:51:24.247Z,12.27
2022-08-04T22:54:32.320Z,12.07
2022-08-04T22:57:43.563Z,12.32
2022-08-04T23:00:59.469Z,12.27
2022-08-04T23:04:03.041Z,11.70
2022-08-04T23:07:09.409Z,12.10
2022-08-04T23:10:14.553Z,12.90
2022-08-04T23:13:19.377Z,11.82
2022-08-04T23:16:24.708Z,12.38
2022-08-04T23:19:30.124Z,12.68
2022-08-04T23:22:40.974Z,12.90
2022-08-04T23:26:08.671Z,12.48
2022-08-04T23:29:11.469Z,12.35
2022-08-04T23:32:20.295Z,12.18
2022-08-04T23:35:23.982Z,13.20
2022-08-04T23:38:31.376Z,13.25
2022-08-04T23:41:54.472Z,13.45
2022-08-04T23:44:58.888Z,13.43
2022-08-04T23:48:16.485Z,14.23
2022-08-04T23:51:22.831Z,14.23
2022-08-04T23:54:26.313Z,14.50
2022-08-04T23:58:05.913Z,14.38
